GSE Systems Price to Sales Ratio 2010-2023 | GVP

Historical PS ratio values for GSE Systems (GVP) over the last 10 years. The current P/S ratio for GSE Systems as of April 23, 2024 is . For more information on how our historical price data is adjusted see the Stock Price Adjustment Guide.
GSE Systems P/S Ratio Historical Data
Date Stock Price TTM Sales per Share Price to Sales Ratio
2024-04-23 2.70 0.14
2023-12-31 2.01 $18.63 0.11
2023-09-30 2.02 $19.59 0.10
2023-06-30 3.60 $20.51 0.18
2023-03-31 6.95 $21.45 0.32
2022-12-31 7.20 $22.56 0.32
2022-09-30 9.00 $24.18 0.37
2022-06-30 12.50 $25.63 0.49
2022-03-31 20.80 $26.10 0.80
2021-12-31 17.10 $26.60 0.64
2021-09-30 14.70 $26.11 0.56
2021-06-30 17.90 $25.36 0.71
2021-03-31 17.00 $25.85 0.66
2020-12-31 13.20 $28.20 0.47
2020-09-30 10.40 $30.63 0.34
2020-06-30 10.10 $34.36 0.29
2020-03-31 9.30 $39.06 0.24
2019-12-31 16.50 $41.48 0.40
2019-09-30 17.50 $44.46 0.39
2019-06-30 23.40 $45.47 0.51
2019-03-31 28.00 $46.07 0.61
2018-12-31 21.00 $46.68 0.45
2018-09-30 36.00 $46.31 0.78
2018-06-30 32.50 $43.28 0.75
2018-03-31 32.50 $39.70 0.82
2017-12-31 32.50 $36.53 0.89
2017-09-30 35.50 $32.48 1.09
2017-06-30 31.00 $32.30 0.96
2017-03-31 34.00 $30.34 1.12
2016-12-31 35.00 $28.94 1.21
2016-09-30 28.89 $29.77 0.97
2016-06-30 22.30 $30.24 0.74
2016-03-31 27.30 $31.07 0.88
2015-12-31 24.00 $31.75 0.76
2015-09-30 14.90 $30.85 0.48
2015-06-30 15.50 $26.95 0.58
2015-03-31 15.00 $23.94 0.63
2014-12-31 15.90 $20.98 0.76
2014-09-30 15.60 $20.63 0.76
2014-06-30 16.60 $22.84 0.73
2014-03-31 17.40 $24.24 0.72
2013-12-31 16.00 $26.12 0.61
2013-09-30 15.70 $26.22 0.60
2013-06-30 15.10 $26.69 0.57
2013-03-31 20.00 $27.79 0.72
2012-12-31 21.60 $28.29 0.76
2012-09-30 20.30 $29.27 0.69
2012-06-30 23.00 $28.83 0.80
2012-03-31 23.80 $27.56 0.86
2011-12-31 19.50 $26.63 0.73
2011-09-30 17.60 $25.28 0.70
2011-06-30 21.60 $24.96 0.87
2011-03-31 22.60 $25.13 0.90
2010-12-31 36.20 $24.55 1.47
2010-09-30 33.50 $24.58 1.36
2010-06-30 40.60 $24.14 1.68
2010-03-31 54.10 $24.51 2.21
2009-12-31 54.80 $23.65 2.32
Sector Industry Market Cap Revenue
Computer and Technology Computer Software $0.009B $0.045B
GSE Systems, Inc. develops and delivers business and technology solutions by applying process control and simulation software, systems and services to the pharmaceutical and chemical research & development, energy, process and manufacturing industries worldwide. The company's products are used in the following industries: specialty chemical, food and beverage, petroleum refining, pharmaceutical, fossil and nuclear power generation, metals and water treatment. (PRESS RELEASE)
Stock Name Country Market Cap PE Ratio
Microsoft (MSFT) United States $2979.308B 36.25
Oracle (ORCL) United States $314.786B 25.62
Salesforce (CRM) United States $265.596B 44.31
Adobe (ADBE) United States $209.167B 34.97
Intuit (INTU) United States $170.736B 57.26
Synopsys (SNPS) United States $78.612B 56.71
Cadence Design Systems (CDNS) United States $77.594B 73.84
Dassault Systemes SA (DASTY) France $54.970B 36.03
Autodesk (ADSK) United States $46.444B 45.71
ANSYS (ANSS) United States $28.356B 47.84
MicroStrategy (MSTR) United States $22.466B 44.76
PTC (PTC) United States $21.346B 62.87
SS&C Technologies Holdings (SSNC) United States $15.138B 14.90
Manhattan Associates (MANH) United States $14.058B 80.96
Open Text (OTEX) Canada $9.662B 10.36
Descartes Systems Group (DSGX) Canada $7.806B 68.39
Trend Micro (TMICY) Japan $7.315B 64.90
Pegasystems (PEGA) United States $4.880B 66.85
Blackbaud (BLKB) United States $4.205B 37.62
CommVault Systems (CVLT) United States $4.183B 74.64
ACI Worldwide (ACIW) United States $3.432B 17.62
Progress Software (PRGS) United States $2.246B 14.06
Verint Systems (VRNT) United States $1.819B 16.95
Sapiens (SPNS) Israel $1.680B 23.80
BlackBerry (BB) Canada $1.650B 0.00
PROS Holdings (PRO) United States $1.580B 0.00
Simulations Plus (SLP) United States $0.899B 66.18
Rand Worldwide (RWWI) United States $0.574B 0.00
Magic Software Enterprises (MGIC) Israel $0.569B 11.71
American Software (AMSWA) United States $0.348B 29.11
Canaan (CAN) China $0.217B 0.00
Rigetti Computing (RGTI) United States $0.180B 0.00
OptimizeRx (OPRX) United States $0.165B 0.00
Icad Inc (ICAD) United States $0.040B 0.00
Hanryu Holdings (HRYU) South Korea $0.031B 0.00
NetSol Technologies (NTWK) United States $0.030B 0.00
Neonode (NEON) Sweden $0.029B 0.00
Wetouch Technology (WETH) $0.029B 0.00
Smith Micro Software (SMSI) United States $0.021B 0.00
SAP SE (SAP) Germany $0.000B 45.57